Terminal Aerodrome Forecast
Issued by NWS

Home | Current Version | Previous Version | Text Only | Print | Product List | Glossary Off
Versions: 1 2 3 4 5 6 7 8 9 10 11 12 13 14 15

776
FTUS42 KMHX 081735
TAFOAJ
TAF
KOAJ 081735Z 0818/0918 21010G20KT P6SM SCT060
     FM090100 23007KT P6SM VCSH BKN050
     FM090500 24006KT P6SM SCT030
     FM091200 24010G17KT P6SM SCT050
      AMD LTD TO CLD VIS AND WIND=

USA.gov is the U.S. government's official web portal to all federal, state and local government web resources and services.